createdAt,value
2022-08-02T00:00:10.918Z,53.63
2022-08-02T00:02:37.554Z,54.38
2022-08-02T00:05:05.035Z,55.34
2022-08-02T00:07:31.768Z,55.38
2022-08-02T00:09:58.406Z,54.86
2022-08-02T00:12:25.549Z,55.03
2022-08-02T00:14:52.850Z,55.10
2022-08-02T00:17:19.695Z,55.08
2022-08-02T00:19:46.354Z,55.80
2022-08-02T00:22:13.633Z,56.37
2022-08-02T00:24:40.613Z,55.64
2022-08-02T00:27:09.599Z,57.84
2022-08-02T00:29:42.464Z,56.10
2022-08-02T00:32:19.429Z,55.93
2022-08-02T00:34:45.884Z,55.43
2022-08-02T00:37:12.388Z,56.18
2022-08-02T00:39:38.871Z,56.29
2022-08-02T00:42:05.452Z,56.99
2022-08-02T00:44:32.017Z,56.46
2022-08-02T00:46:58.564Z,56.33
2022-08-02T00:49:25.085Z,56.17
2022-08-02T00:51:51.865Z,56.72
2022-08-02T00:54:19.775Z,56.68
2022-08-02T00:56:49.634Z,56.96
2022-08-02T00:59:18.076Z,57.30
2022-08-02T01:01:57.023Z,57.85
2022-08-02T01:04:30.647Z,61.41
2022-08-02T01:07:12.951Z,62.97
2022-08-02T01:09:45.651Z,64.55
2022-08-02T01:12:13.474Z,63.78
2022-08-02T01:14:46.091Z,62.52
2022-08-02T01:17:20.190Z,60.64
2022-08-02T01:20:18.909Z,59.31
2022-08-02T01:23:04.239Z,59.42
2022-08-02T01:26:07.957Z,59.28
2022-08-02T01:28:34.445Z,60.14
2022-08-02T01:31:26.693Z,59.46
2022-08-02T01:34:06.149Z,59.32
2022-08-02T01:36:41.537Z,59.16
2022-08-02T01:39:12.303Z,58.69
2022-08-02T01:41:58.934Z,59.00
2022-08-02T01:44:38.016Z,59.04
2022-08-02T01:47:17.852Z,58.68
2022-08-02T01:49:47.959Z,59.05
2022-08-02T01:52:22.854Z,59.84
2022-08-02T01:54:59.297Z,59.65
2022-08-02T01:57:30.690Z,59.40
2022-08-02T02:00:01.651Z,59.92
2022-08-02T02:02:31.888Z,60.18
2022-08-02T02:05:01.975Z,59.81
2022-08-02T02:07:31.980Z,59.77
2022-08-02T02:10:00.380Z,60.04
2022-08-02T02:12:28.624Z,59.73
2022-08-02T02:14:57.460Z,60.07
2022-08-02T02:17:52.619Z,60.27
2022-08-02T02:20:17.932Z,62.11
2022-08-02T02:22:45.415Z,60.64
2022-08-02T02:25:18.309Z,60.31
2022-08-02T02:28:30.000Z,60.75
2022-08-02T02:31:08.088Z,61.76
2022-08-02T02:33:40.671Z,61.79
2022-08-02T02:36:10.845Z,61.05
2022-08-02T02:38:39.645Z,61.24
2022-08-02T02:41:07.018Z,62.19
2022-08-02T02:43:36.536Z,61.28
2022-08-02T02:46:06.179Z,61.79
2022-08-02T02:48:34.873Z,61.72
2022-08-02T02:51:04.817Z,60.95
2022-08-02T02:54:30.089Z,61.41
2022-08-02T02:56:20.345Z,61.94
2022-08-02T02:58:47.396Z,61.41
2022-08-02T03:01:55.864Z,63.13
2022-08-02T03:04:20.352Z,63.61
2022-08-02T03:06:47.074Z,62.04
2022-08-02T03:09:13.907Z,62.74
2022-08-02T03:11:41.359Z,66.19
2022-08-02T03:14:12.453Z,63.09
2022-08-02T03:16:44.212Z,65.45
2022-08-02T03:19:10.807Z,64.08
2022-08-02T03:21:37.642Z,62.91
2022-08-02T03:24:04.976Z,62.88
2022-08-02T03:26:31.478Z,62.73
2022-08-02T03:28:57.979Z,63.17
2022-08-02T03:31:24.471Z,61.97
2022-08-02T03:33:51.254Z,62.29
2022-08-02T03:36:21.345Z,63.02
2022-08-02T03:38:49.090Z,63.03
2022-08-02T03:41:18.126Z,61.93
2022-08-02T03:43:46.953Z,63.14
2022-08-02T03:46:15.841Z,64.12
2022-08-02T03:48:43.189Z,62.04
2022-08-02T03:51:10.783Z,61.53
2022-08-02T03:53:38.564Z,61.89
2022-08-02T03:56:05.740Z,63.39
2022-08-02T03:58:32.733Z,63.35
2022-08-02T04:00:59.768Z,63.08
2022-08-02T04:03:26.697Z,64.87
2022-08-02T04:06:03.761Z,62.50
2022-08-02T04:08:35.637Z,62.22
2022-08-02T04:11:23.045Z,62.78
2022-08-02T04:13:49.813Z,62.05
2022-08-02T04:16:21.425Z,61.78
2022-08-02T04:18:55.791Z,61.52
2022-08-02T04:21:26.235Z,61.38
2022-08-02T04:23:53.948Z,61.44
2022-08-02T04:26:28.362Z,61.51
2022-08-02T04:28:55.757Z,61.81
2022-08-02T04:31:23.818Z,61.67
2022-08-02T04:33:50.879Z,61.78
2022-08-02T04:36:31.564Z,61.20
2022-08-02T04:38:58.768Z,60.87
2022-08-02T04:41:41.056Z,61.16
2022-08-02T04:44:10.409Z,60.55
2022-08-02T04:46:37.950Z,62.23
2022-08-02T04:49:04.876Z,60.92
2022-08-02T04:51:38.643Z,60.85
2022-08-02T04:54:10.062Z,60.30
2022-08-02T04:56:40.667Z,60.49
2022-08-02T04:59:07.360Z,60.28
2022-08-02T05:01:35.629Z,60.81
2022-08-02T05:04:02.682Z,60.77
2022-08-02T05:06:29.231Z,61.33
2022-08-02T05:08:55.927Z,61.05
2022-08-02T05:11:36.565Z,61.19
2022-08-02T05:14:05.188Z,60.57
2022-08-02T05:16:32.274Z,60.87
2022-08-02T05:19:03.160Z,61.65
2022-08-02T05:21:31.415Z,61.77
2022-08-02T05:23:57.904Z,61.92
2022-08-02T05:26:24.358Z,61.01
2022-08-02T05:28:50.842Z,61.53
2022-08-02T05:31:17.306Z,60.79
2022-08-02T05:33:43.815Z,60.32
2022-08-02T05:36:10.310Z,60.52
2022-08-02T05:38:37.890Z,61.01
2022-08-02T05:41:05.699Z,59.21
2022-08-02T05:43:32.549Z,58.91
2022-08-02T05:45:59.165Z,59.83
2022-08-02T05:48:31.130Z,59.10
2022-08-02T05:51:07.068Z,58.43
2022-08-02T05:53:51.537Z,58.59
2022-08-02T05:56:27.008Z,58.14
2022-08-02T05:59:17.402Z,59.05
2022-08-02T06:01:48.436Z,58.04
2022-08-02T06:04:24.690Z,56.55
2022-08-02T06:06:55.316Z,55.83
2022-08-02T06:09:26.986Z,54.87
2022-08-02T06:12:01.369Z,56.61
2022-08-02T06:14:33.332Z,53.62
2022-08-02T06:17:04.419Z,54.76
2022-08-02T06:19:47.054Z,52.83
2022-08-02T06:22:34.513Z,52.04
2022-08-02T06:25:04.446Z,52.22
2022-08-02T06:27:31.682Z,50.44
2022-08-02T06:29:58.548Z,50.91
2022-08-02T06:32:27.399Z,50.35
2022-08-02T06:34:54.083Z,50.33
2022-08-02T06:37:27.596Z,50.76
2022-08-02T06:40:17.348Z,49.23
2022-08-02T06:42:58.957Z,48.63
2022-08-02T06:45:25.460Z,48.45
2022-08-02T06:47:51.957Z,48.53
2022-08-02T06:50:18.540Z,48.57
2022-08-02T06:52:45.038Z,46.50
2022-08-02T06:55:11.545Z,47.29
2022-08-02T06:57:38.110Z,45.98
2022-08-02T07:00:09.061Z,46.13
2022-08-02T07:02:37.256Z,48.01
2022-08-02T07:05:04.816Z,47.46
2022-08-02T07:07:31.393Z,46.97
2022-08-02T07:10:01.323Z,46.36
2022-08-02T07:12:32.458Z,46.31
2022-08-02T07:15:00.504Z,47.45
2022-08-02T07:17:27.881Z,48.75
2022-08-02T07:19:54.837Z,47.76
2022-08-02T07:22:23.551Z,46.65
2022-08-02T07:24:51.402Z,46.92
2022-08-02T07:27:18.014Z,45.76
2022-08-02T07:29:46.262Z,45.70
2022-08-02T07:32:23.547Z,45.24
2022-08-02T07:34:53.534Z,44.29
2022-08-02T07:37:53.759Z,44.44
2022-08-02T07:40:13.428Z,45.51
2022-08-02T07:42:42.596Z,45.91
2022-08-02T07:45:10.003Z,47.19
2022-08-02T07:47:38.546Z,45.14
2022-08-02T07:50:06.821Z,45.26
2022-08-02T07:52:33.390Z,45.13
2022-08-02T07:54:59.947Z,45.38
2022-08-02T07:57:26.524Z,46.19
2022-08-02T07:59:53.030Z,44.49
2022-08-02T08:02:19.834Z,45.19
2022-08-02T08:04:46.278Z,43.55
2022-08-02T08:07:13.104Z,45.20
2022-08-02T08:09:41.821Z,44.85
2022-08-02T08:12:09.709Z,42.46
2022-08-02T08:14:36.602Z,44.98
2022-08-02T08:17:03.574Z,43.58
2022-08-02T08:19:50.002Z,43.81
2022-08-02T08:22:16.592Z,42.16
2022-08-02T08:24:43.193Z,42.73
2022-08-02T08:27:14.430Z,45.19
2022-08-02T08:29:44.728Z,42.98
2022-08-02T08:32:17.553Z,44.06
2022-08-02T08:34:48.218Z,43.16
2022-08-02T08:37:16.915Z,44.43
2022-08-02T08:39:56.312Z,44.56
2022-08-02T08:42:28.924Z,43.85
2022-08-02T08:44:57.431Z,43.79
2022-08-02T08:47:33.369Z,44.06
2022-08-02T08:50:04.964Z,42.14
2022-08-02T08:53:01.410Z,43.12
2022-08-02T08:55:29.434Z,43.13
2022-08-02T08:57:58.491Z,42.38
2022-08-02T09:00:25.087Z,40.44
2022-08-02T09:02:51.691Z,40.34
2022-08-02T09:05:18.255Z,41.08
2022-08-02T09:07:49.430Z,40.24
2022-08-02T09:10:42.651Z,40.79
2022-08-02T09:13:38.127Z,41.46
2022-08-02T09:16:11.580Z,40.19
2022-08-02T09:18:47.639Z,39.05
2022-08-02T09:21:16.903Z,38.93
2022-08-02T09:23:46.094Z,37.26
2022-08-02T09:26:16.456Z,37.79
2022-08-02T09:28:46.545Z,40.53
2022-08-02T09:31:22.436Z,41.80
2022-08-02T09:33:57.295Z,39.63
2022-08-02T09:36:24.710Z,40.12
2022-08-02T09:39:01.381Z,39.84
2022-08-02T09:41:32.849Z,38.16
2022-08-02T09:44:05.184Z,38.48
2022-08-02T09:46:40.993Z,40.86
2022-08-02T09:49:16.754Z,39.30
2022-08-02T09:51:49.584Z,41.24
2022-08-02T09:54:23.142Z,40.71
2022-08-02T09:56:50.591Z,39.18
2022-08-02T09:59:19.004Z,38.38
2022-08-02T10:01:51.364Z,38.99
2022-08-02T10:04:30.808Z,38.22
2022-08-02T10:06:59.650Z,37.54
2022-08-02T10:09:28.852Z,37.12
2022-08-02T10:11:55.438Z,36.25
2022-08-02T10:14:23.191Z,35.25
2022-08-02T10:16:50.156Z,35.08
2022-08-02T10:19:16.669Z,34.98
2022-08-02T10:21:52.628Z,36.57
2022-08-02T10:24:23.464Z,36.82
2022-08-02T10:26:49.933Z,36.04
2022-08-02T10:29:21.314Z,36.89
2022-08-02T10:31:54.203Z,35.01
2022-08-02T10:34:27.301Z,36.76
2022-08-02T10:37:02.817Z,36.06
2022-08-02T10:39:38.770Z,33.56
2022-08-02T10:42:05.472Z,34.31
2022-08-02T10:44:33.716Z,35.43
2022-08-02T10:47:15.632Z,34.87
2022-08-02T10:50:07.051Z,33.72
2022-08-02T10:52:33.833Z,35.39
2022-08-02T10:55:01.352Z,35.30
2022-08-02T10:57:30.374Z,33.98
2022-08-02T11:00:32.633Z,35.07
2022-08-02T11:02:59.153Z,35.82
2022-08-02T11:05:43.178Z,35.76
2022-08-02T11:08:21.010Z,35.20
2022-08-02T11:10:48.221Z,35.20
2022-08-02T11:13:16.851Z,34.76
2022-08-02T11:16:01.470Z,36.65
2022-08-02T11:18:50.882Z,35.19
2022-08-02T11:21:59.731Z,34.52
2022-08-02T11:24:40.383Z,34.23
2022-08-02T11:27:08.989Z,33.74
2022-08-02T11:29:43.754Z,31.32
2022-08-02T11:32:20.217Z,32.54
2022-08-02T11:34:49.055Z,33.64
2022-08-02T11:37:32.628Z,33.60
2022-08-02T11:39:59.164Z,34.50
2022-08-02T11:42:36.109Z,35.30
2022-08-02T11:45:08.131Z,35.18
2022-08-02T11:47:48.722Z,33.74
2022-08-02T11:50:15.995Z,33.52
2022-08-02T11:52:42.966Z,33.63
2022-08-02T11:55:10.673Z,33.03
2022-08-02T11:58:03.298Z,32.98
2022-08-02T12:00:26.980Z,34.33
2022-08-02T12:02:57.280Z,34.78
2022-08-02T12:05:39.137Z,35.62
2022-08-02T12:08:10.568Z,34.75
2022-08-02T12:10:47.770Z,33.14
2022-08-02T12:13:14.493Z,32.20
2022-08-02T12:15:45.192Z,31.78
2022-08-02T12:18:33.619Z,33.51
2022-08-02T12:21:00.725Z,31.96
2022-08-02T12:23:28.443Z,32.44
2022-08-02T12:26:03.209Z,32.26
2022-08-02T12:28:34.811Z,32.12
2022-08-02T12:31:04.137Z,32.46
2022-08-02T12:33:49.750Z,32.05
2022-08-02T12:36:19.808Z,32.94
2022-08-02T12:38:58.508Z,31.65
2022-08-02T12:41:31.725Z,32.15
2022-08-02T12:43:59.631Z,31.59
2022-08-02T12:46:26.158Z,31.48
2022-08-02T12:49:16.727Z,31.11
2022-08-02T12:51:56.531Z,32.48
2022-08-02T12:54:32.734Z,32.04
2022-08-02T12:57:17.094Z,32.73
2022-08-02T12:59:49.304Z,31.44
2022-08-02T13:02:17.022Z,31.05
2022-08-02T13:04:49.888Z,31.26
2022-08-02T13:07:17.987Z,31.52
2022-08-02T13:09:45.946Z,30.73
2022-08-02T13:12:13.013Z,31.73
2022-08-02T13:14:41.847Z,31.11
2022-08-02T13:17:11.380Z,30.99
2022-08-02T13:19:38.607Z,32.25
2022-08-02T13:22:05.997Z,32.54
2022-08-02T13:24:40.250Z,31.68
2022-08-02T13:27:21.627Z,31.13
2022-08-02T13:29:51.366Z,31.57
2022-08-02T13:32:17.934Z,30.94
2022-08-02T13:34:44.490Z,31.00
2022-08-02T13:37:11.244Z,30.65
2022-08-02T13:39:37.859Z,29.91
2022-08-02T13:42:05.747Z,29.75
2022-08-02T13:44:33.081Z,30.14
2022-08-02T13:46:59.553Z,30.21
2022-08-02T13:49:51.407Z,29.19
2022-08-02T13:52:13.137Z,29.26
2022-08-02T13:54:40.016Z,29.63
2022-08-02T13:57:06.605Z,29.04
2022-08-02T13:59:57.022Z,28.30
2022-08-02T14:02:19.789Z,28.94
2022-08-02T14:04:46.335Z,27.87
2022-08-02T14:07:12.905Z,27.95
2022-08-02T14:09:40.455Z,28.58
2022-08-02T14:12:09.582Z,28.72
2022-08-02T14:14:36.651Z,28.46
2022-08-02T14:17:03.161Z,28.22
2022-08-02T14:19:29.838Z,28.72
2022-08-02T14:22:12.049Z,28.08
2022-08-02T14:24:40.013Z,27.68
2022-08-02T14:27:06.606Z,28.53
2022-08-02T14:29:33.186Z,29.00
2022-08-02T14:31:59.754Z,27.99
2022-08-02T14:34:26.262Z,28.73
2022-08-02T14:36:54.040Z,29.34
2022-08-02T14:39:21.224Z,29.62
2022-08-02T14:42:00.212Z,29.24
2022-08-02T14:44:30.150Z,29.16
2022-08-02T14:46:57.349Z,31.30
2022-08-02T14:49:25.258Z,29.42
2022-08-02T14:51:53.887Z,30.64
2022-08-02T14:54:20.694Z,30.02
2022-08-02T14:56:55.757Z,30.24
2022-08-02T14:59:32.674Z,31.63
2022-08-02T15:01:59.656Z,30.44
2022-08-02T15:04:26.368Z,30.79
2022-08-02T15:06:53.401Z,32.77
2022-08-02T15:09:20.648Z,30.61
2022-08-02T15:11:49.180Z,30.61
2022-08-02T15:14:22.038Z,30.27
2022-08-02T15:16:58.110Z,30.58
2022-08-02T15:19:26.465Z,31.88
2022-08-02T15:22:13.221Z,30.46
2022-08-02T15:24:42.992Z,31.16
2022-08-02T15:27:13.355Z,30.49
2022-08-02T15:29:40.154Z,31.47
2022-08-02T15:32:06.729Z,31.32
2022-08-02T15:34:33.271Z,31.17
2022-08-02T15:36:59.731Z,30.27
2022-08-02T15:39:26.215Z,31.18
2022-08-02T15:41:52.809Z,29.89
2022-08-02T15:44:19.378Z,30.31
2022-08-02T15:46:45.867Z,30.05
2022-08-02T15:49:12.385Z,30.15
2022-08-02T15:51:38.890Z,30.23
2022-08-02T15:54:05.525Z,31.11
2022-08-02T15:56:32.053Z,31.33
2022-08-02T15:58:59.104Z,30.10
2022-08-02T16:01:32.134Z,30.09
2022-08-02T16:04:04.927Z,30.80
2022-08-02T16:06:31.572Z,31.04
2022-08-02T16:08:58.065Z,30.95
2022-08-02T16:11:24.561Z,30.41
2022-08-02T16:13:54.205Z,30.70
2022-08-02T16:16:29.324Z,29.99
2022-08-02T16:18:56.415Z,30.63
2022-08-02T16:21:24.637Z,31.78
2022-08-02T16:23:58.977Z,31.18
2022-08-02T16:26:29.732Z,30.77
2022-08-02T16:28:56.859Z,31.18
2022-08-02T16:31:23.874Z,31.40
2022-08-02T16:33:50.436Z,30.89
2022-08-02T16:36:22.605Z,30.40
2022-08-02T16:38:49.122Z,31.25
2022-08-02T16:41:16.346Z,31.11
2022-08-02T16:43:43.012Z,30.94
2022-08-02T16:46:10.114Z,31.53
2022-08-02T16:48:36.858Z,31.32
2022-08-02T16:54:00.483Z,31.88
2022-08-02T16:56:26.401Z,31.48
2022-08-02T16:58:53.277Z,31.11
2022-08-02T17:01:27.305Z,31.15
2022-08-02T17:03:56.292Z,31.07
2022-08-02T17:06:26.307Z,31.05
2022-08-02T17:08:56.218Z,31.49
2022-08-02T17:11:23.864Z,31.92
2022-08-02T17:13:51.728Z,32.49
2022-08-02T17:16:20.645Z,32.21
2022-08-02T17:18:53.989Z,30.68
2022-08-02T17:21:21.116Z,33.15
2022-08-02T17:24:05.486Z,31.63
2022-08-02T17:26:36.147Z,32.38
2022-08-02T17:29:15.405Z,31.32
2022-08-02T17:32:05.947Z,32.21
2022-08-02T17:34:31.837Z,31.40
2022-08-02T17:36:58.310Z,32.12
2022-08-02T17:39:24.786Z,31.97
2022-08-02T17:42:00.663Z,31.70
2022-08-02T17:44:36.578Z,31.70
2022-08-02T17:47:06.689Z,31.82
2022-08-02T17:49:35.356Z,32.30
2022-08-02T17:52:48.344Z,31.85
2022-08-02T17:54:51.549Z,32.42
2022-08-02T17:57:19.298Z,32.02
2022-08-02T18:00:04.430Z,31.87
2022-08-02T18:02:31.291Z,32.41
2022-08-02T18:04:57.738Z,31.93
2022-08-02T18:07:25.270Z,32.14
2022-08-02T18:09:52.215Z,32.34
2022-08-02T18:12:20.242Z,33.58
2022-08-02T18:14:49.091Z,33.72
2022-08-02T18:17:16.836Z,33.31
2022-08-02T18:19:57.313Z,33.20
2022-08-02T18:22:30.309Z,33.08
2022-08-02T18:24:56.989Z,33.03
2022-08-02T18:27:23.681Z,33.77
2022-08-02T18:30:00.177Z,33.44
2022-08-02T18:33:55.319Z,34.30
2022-08-02T18:35:18.533Z,34.21
2022-08-02T18:37:50.359Z,34.24
2022-08-02T18:40:23.669Z,34.39
2022-08-02T18:42:50.217Z,34.68
2022-08-02T18:45:20.006Z,35.06
2022-08-02T18:47:50.724Z,34.90
2022-08-02T18:50:19.657Z,34.73
2022-08-02T18:52:47.850Z,34.90
2022-08-02T18:55:17.663Z,34.79
2022-08-02T18:58:18.099Z,34.67
2022-08-02T19:00:47.705Z,35.35
2022-08-02T19:03:18.919Z,35.76
2022-08-02T19:05:51.594Z,35.88
2022-08-02T19:08:18.670Z,35.82
2022-08-02T19:10:49.327Z,36.28
2022-08-02T19:13:18.322Z,37.15
2022-08-02T19:15:44.846Z,37.17
2022-08-02T19:18:14.411Z,37.25
2022-08-02T19:20:40.953Z,37.10
2022-08-02T19:23:15.180Z,37.68
2022-08-02T19:25:50.089Z,38.03
2022-08-02T19:28:16.808Z,37.51
2022-08-02T19:30:52.928Z,37.82
2022-08-02T19:33:54.960Z,38.26
2022-08-02T19:36:06.572Z,39.11
2022-08-02T19:38:33.061Z,38.94
2022-08-02T19:40:59.727Z,39.07
2022-08-02T19:44:27.203Z,39.08
2022-08-02T19:46:15.891Z,39.98
2022-08-02T19:48:42.773Z,39.82
2022-08-02T19:51:12.889Z,40.25
2022-08-02T19:53:46.935Z,39.91
2022-08-02T19:56:21.064Z,40.89
2022-08-02T19:58:52.105Z,40.72
2022-08-02T20:01:23.456Z,41.37
2022-08-02T20:03:53.807Z,40.98
2022-08-02T20:06:26.436Z,41.18
2022-08-02T20:08:58.937Z,41.18
2022-08-02T20:11:35.099Z,41.60
2022-08-02T20:14:03.294Z,41.27
2022-08-02T20:16:32.854Z,41.55
2022-08-02T20:19:16.321Z,41.51
2022-08-02T20:21:46.515Z,41.66
2022-08-02T20:24:19.532Z,41.66
2022-08-02T20:26:47.809Z,41.93
2022-08-02T20:29:42.280Z,41.78
2022-08-02T20:32:03.980Z,41.89
2022-08-02T20:34:30.991Z,42.11
2022-08-02T20:36:57.445Z,42.44
2022-08-02T20:39:24.437Z,42.08
2022-08-02T20:42:23.441Z,42.77
2022-08-02T20:44:56.191Z,42.88
2022-08-02T20:47:27.687Z,42.59
2022-08-02T20:50:14.234Z,43.09
2022-08-02T20:52:42.945Z,43.01
2022-08-02T20:55:09.848Z,43.05
2022-08-02T20:58:00.496Z,43.23
2022-08-02T21:00:28.400Z,43.60
2022-08-02T21:02:55.378Z,43.84
2022-08-02T21:05:26.762Z,44.28
2022-08-02T21:08:13.762Z,44.08
2022-08-02T21:10:43.509Z,44.92
2022-08-02T21:13:13.970Z,44.24
2022-08-02T21:15:45.943Z,44.81
2022-08-02T21:18:25.398Z,44.17
2022-08-02T21:20:57.580Z,44.44
2022-08-02T21:23:24.268Z,43.93
2022-08-02T21:25:56.875Z,44.34
2022-08-02T21:28:24.818Z,44.65
2022-08-02T21:31:10.574Z,44.71
2022-08-02T21:33:57.040Z,44.12
2022-08-02T21:36:25.079Z,43.81
2022-08-02T21:38:58.063Z,42.71
2022-08-02T21:41:24.542Z,43.74
2022-08-02T21:44:07.036Z,43.16
2022-08-02T21:46:33.461Z,42.24
2022-08-02T21:49:01.367Z,42.24
2022-08-02T21:51:27.866Z,41.85
2022-08-02T21:54:18.885Z,41.98
2022-08-02T21:56:42.207Z,41.23
2022-08-02T22:01:56.870Z,41.45
2022-08-02T22:04:25.304Z,41.54
2022-08-02T22:06:52.513Z,41.80
2022-08-02T22:09:43.628Z,42.10
2022-08-02T22:12:09.816Z,41.30
2022-08-02T22:14:39.470Z,41.33
2022-08-02T22:17:08.650Z,40.78
2022-08-02T22:19:36.084Z,40.88
2022-08-02T22:22:02.566Z,40.78
2022-08-02T22:24:30.247Z,40.74
2022-08-02T22:26:57.326Z,40.29
2022-08-02T22:29:23.825Z,40.68
2022-08-02T22:31:50.313Z,40.35
2022-08-02T22:34:36.913Z,40.60
2022-08-02T22:37:07.231Z,40.91
2022-08-02T22:39:34.187Z,40.84
2022-08-02T22:42:14.766Z,41.39
2022-08-02T22:44:41.313Z,41.38
2022-08-02T22:47:14.951Z,41.42
2022-08-02T22:49:44.592Z,42.34
2022-08-02T22:52:14.190Z,41.17
2022-08-02T22:54:41.076Z,41.45
2022-08-02T22:57:11.425Z,41.48
2022-08-02T22:59:03.936Z,41.78
2022-08-02T22:59:39.789Z,41.24
2022-08-02T23:02:07.188Z,41.80
2022-08-02T23:04:33.772Z,42.07
2022-08-02T23:07:00.323Z,41.12
2022-08-02T23:09:26.898Z,40.89
2022-08-02T23:11:53.427Z,41.38
2022-08-02T23:14:20.328Z,41.08
2022-08-02T23:17:05.446Z,40.90
2022-08-02T23:19:50.376Z,41.18
2022-08-02T23:22:18.531Z,41.54
2022-08-02T23:24:46.107Z,41.44
2022-08-02T23:27:12.605Z,41.39
2022-08-02T23:29:39.136Z,41.61
2022-08-02T23:32:05.834Z,41.72
2022-08-02T23:34:33.435Z,42.48
2022-08-02T23:37:00.282Z,42.01
2022-08-02T23:39:26.790Z,42.18
2022-08-02T23:41:55.214Z,42.23
2022-08-02T23:44:22.860Z,41.95
2022-08-02T23:46:49.395Z,42.42
2022-08-02T23:49:16.091Z,42.58
2022-08-02T23:51:43.307Z,43.00
2022-08-02T23:54:10.532Z,42.72
2022-08-02T23:56:37.879Z,43.89
2022-08-02T23:59:07.533Z,42.65
